Time;durP1;ratioP1;P1;durP2;ratioP2;P2;SDS_P1;SDS_P2;PMS_P1;PMS_P2;Temp;Humidity;BMP_temperature;BMP_pressure;BME280_temperature;BME280_humidity;BME280_pressure;Samples;Min_cycle;Max_cycle;Signal;HPM_P1;HPM_P2
2023/05/19 00:01:02;;;;;;;0.60;0.60;;;19.70;73.10;;;;;;5052518;28;20608;-75
2023/05/19 00:03:29;;;;;;;0.70;0.70;;;19.60;73.10;;;;;;5053144;28;20129;-74
2023/05/19 00:05:55;;;;;;;0.60;0.60;;;19.60;73.20;;;;;;5055340;28;20131;-75
2023/05/19 00:08:22;;;;;;;0.65;0.65;;;19.60;73.30;;;;;;5036233;28;20040;-75
2023/05/19 00:10:48;;;;;;;0.43;0.43;;;19.60;73.30;;;;;;5052043;28;20080;-74
2023/05/19 00:13:13;;;;;;;0.82;0.82;;;19.60;73.40;;;;;;5057213;28;20076;-74
2023/05/19 00:15:39;;;;;;;0.52;0.52;;;19.60;73.40;;;;;;5052793;28;20044;-74
2023/05/19 00:18:07;;;;;;;0.45;0.40;;;19.60;73.40;;;;;;5053772;28;20101;-74
2023/05/19 00:20:33;;;;;;;0.70;0.70;;;19.60;73.50;;;;;;5050898;28;20053;-74
2023/05/19 00:22:58;;;;;;;0.70;0.70;;;19.60;73.50;;;;;;5054121;28;20041;-75
2023/05/19 00:25:24;;;;;;;0.68;0.68;;;19.60;73.50;;;;;;5058510;28;20090;-75
2023/05/19 00:27:50;;;;;;;0.73;0.73;;;19.60;73.50;;;;;;5051700;28;20048;-74
2023/05/19 00:30:16;;;;;;;0.68;0.68;;;19.60;73.60;;;;;;5044868;28;20049;-75
2023/05/19 00:32:41;;;;;;;0.65;0.65;;;19.60;73.80;;;;;;5046706;28;20048;-74
2023/05/19 00:35:07;;;;;;;0.60;0.60;;;19.60;73.80;;;;;;5037807;28;20580;-75
2023/05/19 00:37:33;;;;;;;0.50;0.50;;;19.60;73.90;;;;;;5047802;28;20049;-74
2023/05/19 00:39:58;;;;;;;0.85;0.82;;;19.60;73.90;;;;;;5057000;28;20051;-75
2023/05/19 00:42:24;;;;;;;0.80;0.80;;;19.60;73.90;;;;;;5045068;28;20396;-74
2023/05/19 00:44:50;;;;;;;4.50;0.80;;;19.60;74.00;;;;;;5061232;28;20528;-74
2023/05/19 00:47:15;;;;;;;1.00;0.98;;;19.50;74.00;;;;;;5034784;28;20097;-74
2023/05/19 00:49:41;;;;;;;0.82;0.70;;;19.60;74.10;;;;;;5053142;28;20056;-75
2023/05/19 00:52:06;;;;;;;0.60;0.60;;;19.60;74.20;;;;;;5046787;28;20098;-75
2023/05/19 00:54:33;;;;;;;0.93;0.93;;;19.60;74.20;;;;;;5034869;28;20060;-75
2023/05/19 00:56:58;;;;;;;0.40;0.40;;;19.60;74.20;;;;;;5048860;28;20048;-75
2023/05/19 00:59:24;;;;;;;0.63;0.63;;;19.60;74.30;;;;;;5027071;28;21385;-75
2023/05/19 01:01:50;;;;;;;0.40;0.40;;;19.60;74.30;;;;;;5046218;28;20449;-74
2023/05/19 01:04:18;;;;;;;0.50;0.50;;;19.60;74.50;;;;;;5072596;28;20510;-74
2023/05/19 01:06:53;;;;;;;0.55;0.50;;;19.50;74.40;;;;;;5068714;28;20065;-74
2023/05/19 01:09:22;;;;;;;0.63;0.63;;;19.50;74.40;;;;;;5052435;28;20037;-75
2023/05/19 01:11:51;;;;;;;0.60;0.60;;;19.50;74.50;;;;;;5021688;28;20037;-75
2023/05/19 01:14:17;;;;;;;0.93;0.50;;;19.50;74.60;;;;;;5054424;28;20506;-74
2023/05/19 01:16:47;;;;;;;0.40;0.40;;;19.60;74.70;;;;;;5037832;28;20053;-75
2023/05/19 01:20:00;;;;;;;0.50;0.50;;;19.50;74.70;;;;;;5042775;28;20131;-75
2023/05/19 01:23:03;;;;;;;0.75;0.75;;;19.50;74.70;;;;;;5042650;28;20056;-75
2023/05/19 01:25:32;;;;;;;0.50;0.50;;;19.50;74.70;;;;;;5045896;28;20037;-75
2023/05/19 01:28:19;;;;;;;0.50;0.50;;;19.50;74.80;;;;;;5059100;28;20064;-75
2023/05/19 01:30:47;;;;;;;1.13;0.60;;;19.50;74.80;;;;;;5044217;28;20670;-75
2023/05/19 01:33:13;;;;;;;0.60;0.60;;;19.50;74.80;;;;;;5050538;28;20054;-74
2023/05/19 01:35:39;;;;;;;0.88;0.77;;;19.50;74.90;;;;;;5047826;28;20413;-74
2023/05/19 01:38:07;;;;;;;0.60;0.60;;;19.50;74.90;;;;;;5019080;28;20049;-74
2023/05/19 01:40:33;;;;;;;0.80;0.80;;;19.50;75.00;;;;;;5055389;28;20052;-75
2023/05/19 01:42:59;;;;;;;0.50;0.50;;;19.50;75.00;;;;;;5038595;28;20097;-75
2023/05/19 01:45:26;;;;;;;0.50;0.50;;;19.50;75.10;;;;;;5048021;28;20418;-74
2023/05/19 01:47:53;;;;;;;0.52;0.52;;;19.50;75.10;;;;;;5019551;28;20052;-74
2023/05/19 01:50:19;;;;;;;1.20;0.70;;;19.50;75.10;;;;;;5036480;28;20045;-75
2023/05/19 01:52:44;;;;;;;0.60;0.60;;;19.50;75.10;;;;;;5045616;28;20056;-75
2023/05/19 01:55:10;;;;;;;0.52;0.52;;;19.50;75.10;;;;;;5035942;28;20041;-75
2023/05/19 01:57:42;;;;;;;0.50;0.50;;;19.50;75.20;;;;;;5025134;28;20053;-74
2023/05/19 02:00:25;;;;;;;0.93;0.70;;;19.50;75.20;;;;;;5046459;28;20040;-75
2023/05/19 02:03:10;;;;;;;0.30;0.30;;;19.50;75.30;;;;;;5029874;28;20133;-74
2023/05/19 02:05:52;;;;;;;0.40;0.40;;;19.50;75.30;;;;;;5034161;28;20055;-74
2023/05/19 02:08:29;;;;;;;0.55;0.55;;;19.50;75.40;;;;;;5037342;28;20049;-74
2023/05/19 02:11:02;;;;;;;0.30;0.30;;;19.50;75.40;;;;;;5033175;28;20455;-75
2023/05/19 02:13:30;;;;;;;0.73;0.70;;;19.50;75.40;;;;;;5019471;28;20045;-75
2023/05/19 02:15:57;;;;;;;0.50;0.50;;;19.50;75.50;;;;;;5032490;28;20049;-75
2023/05/19 02:18:23;;;;;;;0.50;0.50;;;19.50;76.30;;;;;;5013241;28;20041;-74
2023/05/19 02:20:49;;;;;;;0.52;0.52;;;19.50;75.50;;;;;;5050241;28;20418;-75
2023/05/19 02:23:15;;;;;;;0.90;0.90;;;19.50;75.60;;;;;;5053773;28;20507;-75
2023/05/19 02:25:40;;;;;;;0.60;0.60;;;19.40;75.50;;;;;;5053246;28;20041;-75
2023/05/19 02:28:06;;;;;;;0.50;0.50;;;19.40;75.50;;;;;;5051128;28;20073;-75
2023/05/19 02:30:31;;;;;;;0.60;0.60;;;19.50;75.60;;;;;;5049168;28;20059;-75
2023/05/19 02:32:57;;;;;;;0.68;0.68;;;19.40;75.50;;;;;;5038709;28;20576;-75
2023/05/19 02:35:22;;;;;;;0.40;0.40;;;19.40;75.60;;;;;;5054634;28;20049;-75
2023/05/19 02:37:48;;;;;;;0.40;0.40;;;19.40;75.70;;;;;;5053361;28;20205;-75
2023/05/19 02:40:14;;;;;;;0.73;0.73;;;19.40;75.60;;;;;;5055218;28;20112;-75
2023/05/19 02:42:39;;;;;;;0.60;0.60;;;19.40;75.70;;;;;;5037926;28;20144;-74
2023/05/19 02:45:06;;;;;;;0.63;0.50;;;19.40;75.70;;;;;;5054066;28;20047;-76
2023/05/19 02:47:31;;;;;;;0.50;0.50;;;19.40;75.70;;;;;;5051343;28;20141;-75
2023/05/19 02:49:57;;;;;;;0.80;0.80;;;19.40;75.70;;;;;;5054554;28;20136;-74
2023/05/19 02:52:22;;;;;;;0.60;0.60;;;19.40;75.90;;;;;;5035597;28;20109;-75
2023/05/19 02:54:48;;;;;;;0.70;0.70;;;19.40;75.90;;;;;;5018433;28;20045;-75
2023/05/19 02:57:13;;;;;;;0.60;0.60;;;19.40;75.80;;;;;;5050168;28;20537;-76
2023/05/19 02:59:39;;;;;;;0.50;0.50;;;19.40;75.80;;;;;;5050563;28;20047;-75
2023/05/19 03:02:05;;;;;;;0.82;0.60;;;19.40;75.90;;;;;;5053002;28;20044;-74
2023/05/19 03:04:30;;;;;;;0.70;0.63;;;19.40;75.90;;;;;;5054390;28;20422;-75
2023/05/19 03:06:56;;;;;;;0.60;0.60;;;19.40;75.90;;;;;;5051565;28;20037;-75
2023/05/19 03:09:22;;;;;;;0.50;0.50;;;19.40;75.90;;;;;;5048678;28;20052;-75
2023/05/19 03:11:47;;;;;;;0.80;0.40;;;19.40;76.00;;;;;;5050581;28;20059;-75
2023/05/19 03:14:13;;;;;;;0.50;0.50;;;19.40;76.00;;;;;;5054225;28;20433;-75
2023/05/19 03:16:42;;;;;;;0.60;0.60;;;19.40;76.10;;;;;;5048522;28;20040;-75
2023/05/19 03:19:07;;;;;;;0.60;0.45;;;19.40;76.10;;;;;;5052317;28;20098;-75
2023/05/19 03:21:33;;;;;;;0.82;0.70;;;19.40;76.10;;;;;;5067027;28;20049;-74
2023/05/19 03:24:02;;;;;;;0.40;0.40;;;19.40;76.10;;;;;;5051946;28;20036;-74
2023/05/19 03:26:31;;;;;;;0.70;0.50;;;19.40;76.10;;;;;;5052823;28;20053;-75
2023/05/19 03:28:56;;;;;;;0.50;0.50;;;19.30;76.10;;;;;;5049275;28;20139;-74
2023/05/19 03:31:22;;;;;;;0.52;0.52;;;19.40;76.20;;;;;;5053943;28;20509;-75
2023/05/19 03:33:48;;;;;;;0.60;0.60;;;19.40;76.20;;;;;;5034860;28;20115;-74
2023/05/19 03:36:13;;;;;;;0.55;0.40;;;19.40;76.20;;;;;;5039442;28;20033;-75
2023/05/19 03:38:39;;;;;;;0.40;0.40;;;19.40;76.20;;;;;;5036373;28;20128;-75
2023/05/19 03:41:04;;;;;;;0.35;0.35;;;19.40;76.30;;;;;;5053216;28;20103;-75
2023/05/19 03:43:30;;;;;;;0.40;0.40;;;19.40;76.40;;;;;;5054337;28;20044;-75
2023/05/19 03:45:55;;;;;;;0.60;0.60;;;19.40;76.30;;;;;;5053952;28;20352;-75
2023/05/19 03:48:21;;;;;;;0.38;0.38;;;19.40;76.30;;;;;;5049842;28;20053;-75
2023/05/19 03:50:47;;;;;;;0.50;0.50;;;19.30;76.30;;;;;;5052926;28;20387;-75
2023/05/19 03:53:13;;;;;;;1.05;0.40;;;19.40;76.40;;;;;;5048800;28;20064;-75
2023/05/19 03:55:38;;;;;;;0.47;0.40;;;19.30;76.30;;;;;;5034621;28;20044;-75
2023/05/19 03:58:04;;;;;;;0.95;0.50;;;19.40;76.40;;;;;;5051631;28;20107;-74
2023/05/19 04:00:29;;;;;;;0.50;0.50;;;19.40;76.40;;;;;;5053812;28;20041;-75
2023/05/19 04:02:55;;;;;;;0.40;0.38;;;19.30;76.30;;;;;;5047994;28;20043;-74
2023/05/19 04:05:20;;;;;;;0.30;0.30;;;19.30;77.20;;;;;;5036900;28;20033;-75
2023/05/19 04:07:46;;;;;;;0.82;0.50;;;19.40;76.50;;;;;;5054161;28;20080;-74
2023/05/19 04:10:12;;;;;;;0.60;0.60;;;19.30;76.40;;;;;;5036909;28;20266;-75
2023/05/19 04:12:37;;;;;;;0.63;0.63;;;19.30;76.50;;;;;;5051640;28;20071;-75
2023/05/19 04:15:04;;;;;;;0.50;0.50;;;19.30;76.50;;;;;;5050986;28;20513;-74
2023/05/19 04:17:30;;;;;;;0.60;0.60;;;19.30;76.50;;;;;;5050106;28;20106;-74
2023/05/19 04:19:55;;;;;;;0.50;0.40;;;19.30;76.50;;;;;;5036796;28;20456;-75
2023/05/19 04:22:21;;;;;;;0.43;0.40;;;19.30;76.50;;;;;;5039850;28;20052;-75
2023/05/19 04:24:47;;;;;;;0.30;0.30;;;19.30;77.50;;;;;;5054576;28;20059;-74
2023/05/19 04:27:15;;;;;;;0.50;0.50;;;19.30;76.50;;;;;;5047033;28;20052;-75
2023/05/19 04:29:40;;;;;;;0.52;0.50;;;19.30;76.50;;;;;;5044039;28;20132;-75
2023/05/19 04:32:06;;;;;;;0.43;0.40;;;19.30;76.50;;;;;;5047550;28;20117;-75
2023/05/19 04:34:39;;;;;;;0.80;0.60;;;19.30;76.60;;;;;;5037175;28;20045;-75
2023/05/19 04:37:08;;;;;;;0.30;0.30;;;19.30;76.50;;;;;;5038788;28;20052;-75
2023/05/19 04:39:37;;;;;;;0.32;0.30;;;19.30;76.60;;;;;;5046860;28;20045;-75
2023/05/19 04:42:03;;;;;;;0.50;0.50;;;19.30;76.70;;;;;;5034851;28;20081;-75
2023/05/19 04:44:29;;;;;;;0.90;0.40;;;19.30;76.60;;;;;;5047464;28;20072;-75
2023/05/19 04:46:57;;;;;;;0.65;0.60;;;19.30;76.60;;;;;;5045479;28;20098;-74
2023/05/19 04:49:23;;;;;;;2.95;0.68;;;19.30;76.70;;;;;;5039285;28;20041;-75
2023/05/19 04:51:50;;;;;;;0.40;0.40;;;19.20;76.60;;;;;;5040571;28;20055;-74
2023/05/19 04:54:15;;;;;;;0.50;0.40;;;19.20;76.70;;;;;;5034197;28;20412;-75
2023/05/19 04:56:42;;;;;;;0.60;0.60;;;19.30;76.70;;;;;;5055970;28;20511;-75
2023/05/19 04:59:08;;;;;;;0.50;0.43;;;19.30;76.70;;;;;;5046133;28;20103;-74
2023/05/19 05:01:39;;;;;;;0.82;0.82;;;19.30;76.70;;;;;;5056226;28;20075;-75
2023/05/19 05:04:04;;;;;;;0.50;0.50;;;19.30;76.70;;;;;;5039092;28;20488;-75
2023/05/19 05:06:30;;;;;;;0.52;0.52;;;19.30;76.70;;;;;;5048807;28;20037;-74
2023/05/19 05:08:56;;;;;;;0.82;0.60;;;19.20;76.70;;;;;;5046169;28;20052;-75
2023/05/19 05:11:21;;;;;;;0.40;0.40;;;19.20;76.60;;;;;;5044334;28;20053;-75
2023/05/19 05:13:47;;;;;;;0.45;0.40;;;19.20;76.60;;;;;;5028933;28;20050;-75
2023/05/19 05:16:13;;;;;;;0.70;0.70;;;19.20;76.70;;;;;;5014353;28;20045;-75
2023/05/19 05:18:39;;;;;;;0.50;0.50;;;19.30;76.60;;;;;;5026979;28;20128;-75
2023/05/19 05:21:05;;;;;;;0.80;0.57;;;19.20;76.80;;;;;;5007409;28;20049;-75
2023/05/19 05:23:31;;;;;;;0.90;0.80;;;19.10;76.70;;;;;;5023207;28;20069;-75
2023/05/19 05:25:57;;;;;;;0.57;0.57;;;19.10;76.20;;;;;;5023335;28;20136;-78
2023/05/19 05:28:23;;;;;;;0.68;0.65;;;19.10;75.30;;;;;;5030993;28;20044;-75
2023/05/19 05:30:49;;;;;;;1.25;0.70;;;19.10;75.40;;;;;;5051357;28;20042;-76
2023/05/19 05:33:15;;;;;;;0.90;0.90;;;19.10;75.40;;;;;;5037508;28;20061;-78
2023/05/19 05:35:40;;;;;;;1.08;1.00;;;19.00;75.00;;;;;;5033818;28;20045;-75
2023/05/19 05:38:06;;;;;;;1.13;0.85;;;19.00;74.70;;;;;;5053334;28;20052;-75
2023/05/19 05:40:32;;;;;;;1.20;1.10;;;19.00;74.40;;;;;;5034116;28;20049;-75
2023/05/19 05:42:58;;;;;;;1.60;0.95;;;19.10;75.20;;;;;;5051795;28;20039;-75
2023/05/19 05:45:23;;;;;;;1.35;1.25;;;19.00;74.30;;;;;;5053661;28;20040;-75
2023/05/19 05:47:49;;;;;;;1.20;1.02;;;19.10;74.10;;;;;;5052478;28;20583;-75
2023/05/19 05:50:15;;;;;;;1.90;1.70;;;19.00;73.90;;;;;;5052956;28;20055;-77
2023/05/19 05:52:41;;;;;;;1.92;1.40;;;18.90;74.00;;;;;;5051448;28;20045;-75
2023/05/19 05:55:08;;;;;;;1.02;0.95;;;19.00;74.00;;;;;;5071503;28;20041;-75
2023/05/19 05:57:34;;;;;;;2.40;1.60;;;19.00;73.70;;;;;;5052489;28;20128;-76
2023/05/19 06:00:00;;;;;;;1.15;1.08;;;18.90;74.20;;;;;;5052439;28;20043;-76
2023/05/19 06:02:27;;;;;;;1.30;1.20;;;19.00;73.60;;;;;;5049230;28;20037;-76
2023/05/19 06:04:53;;;;;;;1.25;1.15;;;18.90;73.70;;;;;;5035959;28;20069;-75
2023/05/19 06:07:18;;;;;;;1.42;1.30;;;18.90;73.40;;;;;;5048912;28;20040;-76
2023/05/19 06:09:44;;;;;;;3.00;0.98;;;18.90;73.30;;;;;;5048735;28;20102;-75
2023/05/19 06:12:10;;;;;;;1.85;1.10;;;18.90;73.40;;;;;;5050292;28;20060;-75
2023/05/19 06:14:35;;;;;;;1.13;1.05;;;18.90;73.30;;;;;;5049907;28;20170;-75
2023/05/19 06:17:01;;;;;;;1.35;1.10;;;18.90;73.20;;;;;;5050097;28;20051;-75
2023/05/19 06:19:27;;;;;;;1.05;0.95;;;18.90;73.20;;;;;;5052744;28;20044;-75
2023/05/19 06:21:52;;;;;;;1.50;1.20;;;18.90;73.20;;;;;;5051391;28;20040;-75
2023/05/19 06:24:18;;;;;;;0.95;0.85;;;18.90;73.30;;;;;;5047680;28;20546;-76
2023/05/19 06:26:43;;;;;;;1.05;1.00;;;18.90;73.40;;;;;;5052217;28;20053;-75
2023/05/19 06:29:09;;;;;;;1.55;1.00;;;18.90;73.20;;;;;;5051999;28;20049;-75
2023/05/19 06:31:34;;;;;;;1.20;1.10;;;18.90;73.30;;;;;;5055486;28;20532;-75
2023/05/19 06:34:00;;;;;;;1.30;1.20;;;18.90;73.30;;;;;;5040539;28;20041;-75
2023/05/19 06:36:25;;;;;;;1.48;1.17;;;18.90;73.40;;;;;;5048280;28;20525;-76
2023/05/19 06:38:51;;;;;;;1.10;1.00;;;18.90;73.40;;;;;;5052664;28;20522;-76
2023/05/19 06:41:17;;;;;;;1.20;0.98;;;19.00;73.40;;;;;;5053003;28;20048;-78
2023/05/19 06:43:42;;;;;;;1.50;1.17;;;19.00;73.40;;;;;;5032118;28;20069;-76
2023/05/19 06:46:08;;;;;;;1.27;1.05;;;19.10;73.40;;;;;;5056827;28;20040;-77
2023/05/19 06:48:33;;;;;;;1.17;1.08;;;19.20;74.60;;;;;;5048692;28;20048;-76
2023/05/19 06:50:59;;;;;;;0.82;0.82;;;19.10;74.30;;;;;;5049925;28;20040;-76
2023/05/19 06:53:25;;;;;;;2.97;1.17;;;19.10;77.30;;;;;;5050802;28;20498;-77
2023/05/19 06:55:51;;;;;;;1.30;1.08;;;19.10;78.50;;;;;;5050806;28;20053;-77
2023/05/19 06:58:16;;;;;;;1.60;1.50;;;19.20;77.80;;;;;;5035558;28;20040;-77
2023/05/19 07:00:42;;;;;;;2.00;1.80;;;19.20;74.90;;;;;;5050198;28;20044;-75
2023/05/19 07:03:08;;;;;;;1.90;1.80;;;19.00;74.40;;;;;;5052711;28;20044;-79
2023/05/19 07:05:33;;;;;;;2.58;2.28;;;18.80;73.30;;;;;;5049415;28;20531;-79
2023/05/19 07:07:59;;;;;;;2.88;2.67;;;18.70;73.40;;;;;;5053244;28;20156;-78
2023/05/19 07:10:24;;;;;;;1.95;1.75;;;18.70;74.00;;;;;;5055414;28;20527;-78
2023/05/19 07:12:50;;;;;;;3.15;2.03;;;18.60;73.90;;;;;;5050201;28;20131;-78
2023/05/19 07:15:16;;;;;;;2.55;2.33;;;18.50;73.70;;;;;;5052819;28;20429;-78
2023/05/19 07:17:41;;;;;;;2.65;1.95;;;18.50;73.80;;;;;;5049719;28;20037;-78
2023/05/19 07:20:10;;;;;;;3.78;2.88;;;18.40;75.00;;;;;;5053856;28;20045;-78
2023/05/19 07:22:37;;;;;;;3.20;2.10;;;18.30;73.90;;;;;;5046869;28;20087;-77
2023/05/19 07:25:03;;;;;;;3.42;2.42;;;18.40;74.20;;;;;;5057327;28;20072;-77
2023/05/19 07:27:28;;;;;;;2.53;2.33;;;18.40;73.90;;;;;;5044296;28;20060;-77
2023/05/19 07:29:54;;;;;;;3.22;2.30;;;18.40;73.80;;;;;;5054125;28;20095;-78
2023/05/19 07:32:19;;;;;;;3.53;2.45;;;18.30;73.90;;;;;;5037634;28;20037;-78
2023/05/19 07:34:45;;;;;;;2.85;2.65;;;18.30;74.10;;;;;;5048326;28;20037;-79
2023/05/19 07:37:10;;;;;;;3.70;2.58;;;18.30;74.00;;;;;;5055427;28;20051;-77
2023/05/19 07:39:36;;;;;;;3.17;2.78;;;18.40;74.30;;;;;;5046774;28;20049;-78
2023/05/19 07:42:02;;;;;;;3.38;2.47;;;18.20;74.70;;;;;;5045326;28;20047;-77
2023/05/19 07:44:30;;;;;;;2.90;2.67;;;18.30;74.70;;;;;;5022818;28;20056;-78
2023/05/19 07:46:55;;;;;;;4.78;2.80;;;18.30;74.50;;;;;;5052548;28;20510;-77
2023/05/19 07:49:21;;;;;;;4.50;3.10;;;18.40;74.60;;;;;;5037341;28;20037;-77
2023/05/19 07:51:46;;;;;;;4.70;2.95;;;18.30;74.70;;;;;;5049155;28;20041;-77
2023/05/19 07:54:12;;;;;;;4.05;3.03;;;18.40;74.70;;;;;;5040788;28;20043;-77
2023/05/19 07:56:37;;;;;;;3.28;2.78;;;18.40;74.60;;;;;;5034079;28;20037;-77
2023/05/19 07:59:03;;;;;;;2.88;2.15;;;18.40;75.70;;;;;;5056148;28;20051;-77
2023/05/19 08:01:29;;;;;;;2.95;2.45;;;18.40;75.00;;;;;;5054025;28;20036;-77
2023/05/19 08:03:55;;;;;;;3.03;2.55;;;18.50;74.90;;;;;;5054423;28;20044;-77
2023/05/19 08:06:21;;;;;;;2.72;2.50;;;18.50;74.80;;;;;;5044484;28;20037;-76
2023/05/19 08:08:46;;;;;;;7.57;3.22;;;18.50;74.90;;;;;;5049973;28;20044;-76
2023/05/19 08:11:12;;;;;;;3.80;3.47;;;18.60;74.80;;;;;;5044405;28;20061;-77
2023/05/19 08:13:38;;;;;;;3.40;3.10;;;18.60;74.70;;;;;;5056326;28;20210;-76
2023/05/19 08:16:04;;;;;;;2.60;2.40;;;18.50;74.80;;;;;;5058216;28;20051;-77
2023/05/19 08:18:29;;;;;;;3.95;2.67;;;18.60;75.00;;;;;;5055873;28;20116;-76
2023/05/19 08:20:56;;;;;;;3.67;2.55;;;18.60;75.10;;;;;;5055073;28;20102;-76
2023/05/19 08:23:22;;;;;;;3.38;3.00;;;18.70;74.90;;;;;;5055654;28;20504;-76
2023/05/19 08:25:47;;;;;;;5.30;2.63;;;18.60;75.00;;;;;;5058213;28;20051;-76
2023/05/19 08:28:13;;;;;;;3.03;2.45;;;18.60;74.90;;;;;;5059747;28;20402;-76
2023/05/19 08:30:38;;;;;;;2.60;2.40;;;18.70;74.80;;;;;;5054984;28;20093;-75
2023/05/19 08:33:05;;;;;;;4.47;2.72;;;18.70;74.80;;;;;;5053646;28;20409;-76
2023/05/19 08:35:30;;;;;;;2.67;2.47;;;18.80;74.70;;;;;;5045997;28;20047;-76
2023/05/19 08:37:56;;;;;;;3.30;2.40;;;18.70;74.60;;;;;;5054256;28;20037;-77
2023/05/19 08:40:21;;;;;;;3.42;2.50;;;18.80;74.40;;;;;;5044962;28;20131;-77
2023/05/19 08:42:47;;;;;;;5.03;2.25;;;18.80;74.40;;;;;;5026760;28;20071;-77
2023/05/19 08:45:13;;;;;;;2.75;2.15;;;18.80;74.60;;;;;;5049250;28;20060;-77
2023/05/19 08:47:40;;;;;;;3.80;2.08;;;18.80;75.20;;;;;;5051996;28;20037;-77
2023/05/19 08:50:08;;;;;;;4.38;2.47;;;18.90;74.30;;;;;;5051668;28;20040;-76
2023/05/19 08:52:48;;;;;;;2.90;2.10;;;18.90;74.20;;;;;;5050725;28;20063;-78
2023/05/19 08:55:26;;;;;;;2.42;2.10;;;18.90;74.10;;;;;;5051008;28;20048;-77
2023/05/19 08:57:52;;;;;;;3.08;2.20;;;18.90;74.10;;;;;;5055986;28;21338;-76
2023/05/19 09:00:17;;;;;;;2.00;1.77;;;19.00;74.20;;;;;;5045906;28;20570;-76
2023/05/19 09:02:43;;;;;;;2.78;2.20;;;18.90;74.40;;;;;;5031379;28;20051;-77
2023/05/19 09:05:08;;;;;;;2.72;2.00;;;19.00;74.40;;;;;;5033121;28;20043;-76
2023/05/19 09:07:35;;;;;;;3.63;1.83;;;19.00;74.40;;;;;;5043794;28;20041;-76
2023/05/19 09:10:01;;;;;;;2.33;2.10;;;19.00;74.30;;;;;;5059856;28;20048;-76
2023/05/19 09:12:27;;;;;;;3.83;2.20;;;19.00;74.40;;;;;;5033788;28;20050;-77
2023/05/19 09:14:52;;;;;;;2.22;1.83;;;19.00;74.50;;;;;;5057523;28;20094;-76
2023/05/19 09:17:18;;;;;;;2.15;1.92;;;19.00;74.60;;;;;;5054442;28;20095;-76
2023/05/19 09:19:43;;;;;;;4.28;2.10;;;19.10;74.60;;;;;;5055482;28;20664;-76
2023/05/19 09:22:09;;;;;;;2.20;1.70;;;19.00;74.30;;;;;;5055886;28;20125;-76
2023/05/19 09:24:36;;;;;;;1.83;1.70;;;19.10;75.20;;;;;;5054743;28;20037;-76
2023/05/19 09:27:02;;;;;;;2.10;1.73;;;19.20;74.80;;;;;;5036559;28;20132;-77
2023/05/19 09:29:27;;;;;;;2.05;1.85;;;19.20;74.40;;;;;;5049794;28;20566;-76
2023/05/19 09:31:54;;;;;;;55.20;49.53;;;19.30;74.10;;;;;;5046231;28;20121;-76
2023/05/19 09:34:22;;;;;;;36.85;33.03;;;19.30;74.70;;;;;;5033246;28;20040;-78
2023/05/19 09:36:48;;;;;;;18.95;17.08;;;19.30;74.00;;;;;;5049416;28;20052;-76
2023/05/19 09:39:18;;;;;;;13.95;12.68;;;19.40;74.20;;;;;;5049699;28;20045;-76
2023/05/19 09:41:43;;;;;;;11.60;10.48;;;19.40;74.10;;;;;;5043329;28;20044;-77
2023/05/19 09:44:20;;;;;;;9.20;8.40;;;19.40;74.20;;;;;;5032508;28;20659;-78
2023/05/19 09:46:52;;;;;;;9.38;8.57;;;19.40;73.90;;;;;;5032163;28;20045;-76
2023/05/19 09:49:24;;;;;;;8.45;7.60;;;19.40;73.80;;;;;;5044426;28;20072;-77
2023/05/19 09:51:55;;;;;;;6.97;6.43;;;19.40;74.00;;;;;;5040983;28;20049;-77
2023/05/19 09:54:22;;;;;;;5.93;5.47;;;19.40;74.20;;;;;;5015067;28;20059;-77
2023/05/19 09:56:57;;;;;;;5.32;4.40;;;19.50;73.90;;;;;;5032876;28;20498;-76
2023/05/19 09:59:24;;;;;;;5.80;4.35;;;19.40;73.20;;;;;;5042984;28;20046;-78
2023/05/19 10:01:51;;;;;;;3.75;3.45;;;19.50;74.00;;;;;;5048557;28;20403;-78
2023/05/19 10:04:17;;;;;;;3.10;2.70;;;19.50;73.60;;;;;;5059647;28;20037;-77
2023/05/19 10:06:43;;;;;;;3.33;2.95;;;19.50;73.50;;;;;;5051886;28;20048;-75
2023/05/19 10:09:08;;;;;;;3.33;3.03;;;19.60;74.00;;;;;;5050112;28;20151;-75
2023/05/19 10:11:34;;;;;;;3.30;3.10;;;19.60;73.80;;;;;;5019997;28;20047;-76
2023/05/19 10:13:59;;;;;;;4.90;2.60;;;19.60;73.90;;;;;;5046159;28;20061;-76
2023/05/19 10:16:25;;;;;;;2.83;2.63;;;19.70;73.80;;;;;;5067622;28;20094;-75
2023/05/19 10:18:51;;;;;;;3.75;2.67;;;19.70;73.70;;;;;;5057102;28;20049;-75
2023/05/19 10:21:16;;;;;;;2.80;2.38;;;19.70;73.60;;;;;;5033024;28;20510;-75
2023/05/19 10:23:42;;;;;;;3.25;2.60;;;19.70;74.10;;;;;;5045299;28;20106;-76
2023/05/19 10:26:07;;;;;;;2.78;2.58;;;19.80;74.90;;;;;;5049765;28;20048;-78
2023/05/19 10:28:35;;;;;;;3.10;2.80;;;19.80;74.30;;;;;;5057187;28;20048;-77
2023/05/19 10:31:01;;;;;;;3.53;2.47;;;19.90;74.30;;;;;;5030910;28;20116;-77
2023/05/19 10:33:51;;;;;;;2.88;2.42;;;19.80;73.60;;;;;;5050195;28;20060;-77
2023/05/19 10:36:45;;;;;;;2.50;2.30;;;19.80;73.70;;;;;;4982645;28;20445;-77
2023/05/19 10:39:34;;;;;;;3.85;2.30;;;19.80;73.60;;;;;;4986406;28;20040;-77
2023/05/19 10:42:12;;;;;;;2.70;2.50;;;19.80;73.00;;;;;;4975973;28;20108;-76
2023/05/19 10:44:41;;;;;;;2.40;2.15;;;19.90;73.10;;;;;;4976377;28;20069;-77
2023/05/19 10:47:07;;;;;;;3.17;2.85;;;19.90;72.90;;;;;;4992952;28;20549;-77
2023/05/19 10:49:35;;;;;;;2.42;2.22;;;20.00;72.80;;;;;;4992125;28;20050;-77
2023/05/19 10:52:01;;;;;;;2.28;2.00;;;20.00;72.30;;;;;;4985051;28;20121;-77
2023/05/19 10:54:44;;;;;;;2.58;1.92;;;20.00;72.30;;;;;;4969998;28;20491;-77
2023/05/19 10:57:14;;;;;;;2.47;2.28;;;20.00;72.40;;;;;;4975559;28;20080;-77
2023/05/19 10:59:40;;;;;;;2.30;2.10;;;20.00;72.30;;;;;;4990815;28;20038;-78
2023/05/19 11:02:06;;;;;;;2.90;2.45;;;20.00;71.80;;;;;;4974555;28;20043;-78
2023/05/19 11:04:52;;;;;;;2.28;2.08;;;20.00;72.10;;;;;;4968962;28;20134;-78
2023/05/19 11:07:19;;;;;;;2.58;2.38;;;20.00;72.10;;;;;;4989179;28;20047;-78
2023/05/19 11:09:48;;;;;;;2.30;2.20;;;20.00;71.40;;;;;;4990554;28;20042;-79
2023/05/19 11:12:14;;;;;;;2.22;2.03;;;20.00;72.10;;;;;;4985990;28;20060;-78
2023/05/19 11:14:40;;;;;;;2.25;2.15;;;20.00;72.00;;;;;;5019935;28;20045;-78
2023/05/19 11:17:05;;;;;;;2.13;1.80;;;20.00;71.80;;;;;;5053043;28;20503;-78
2023/05/19 11:19:33;;;;;;;2.30;2.10;;;20.00;71.60;;;;;;5032649;28;20037;-78
2023/05/19 11:22:11;;;;;;;2.10;2.00;;;20.00;71.80;;;;;;5047936;28;20091;-79
2023/05/19 11:24:51;;;;;;;3.60;2.30;;;20.00;71.70;;;;;;5049015;28;20573;-78
2023/05/19 11:27:27;;;;;;;2.67;2.00;;;20.00;71.50;;;;;;5031149;28;20036;-77
2023/05/19 11:29:54;;;;;;;1.98;1.88;;;20.00;71.70;;;;;;5047160;28;20132;-78
2023/05/19 11:32:21;;;;;;;2.42;2.22;;;20.00;71.50;;;;;;5037192;28;20648;-77
2023/05/19 11:34:47;;;;;;;4.07;2.03;;;20.00;71.60;;;;;;5036004;28;20036;-77
2023/05/19 11:37:13;;;;;;;2.40;2.05;;;20.10;71.20;;;;;;5037348;28;20438;-78
2023/05/19 11:39:39;;;;;;;1.80;1.70;;;20.10;71.10;;;;;;5034735;28;20040;-79
2023/05/19 11:42:07;;;;;;;2.83;2.13;;;20.10;71.20;;;;;;5033265;28;20036;-77
2023/05/19 11:44:32;;;;;;;2.35;2.15;;;20.10;71.30;;;;;;5059647;28;20090;-78
2023/05/19 11:46:58;;;;;;;2.25;2.00;;;20.10;71.50;;;;;;5057373;28;20045;-78
2023/05/19 11:49:24;;;;;;;2.67;2.00;;;20.10;71.50;;;;;;5054119;28;20048;-77
2023/05/19 11:51:49;;;;;;;2.20;2.00;;;20.10;71.60;;;;;;5049305;28;20464;-77
2023/05/19 11:54:15;;;;;;;1.95;1.85;;;20.10;71.50;;;;;;4665735;28;10000031;-77
2023/05/19 11:56:41;;;;;;;2.08;1.98;;;20.10;71.50;;;;;;5043199;28;20045;-78
2023/05/19 11:59:07;;;;;;;1.70;1.60;;;20.20;71.40;;;;;;5034416;28;20171;-78
2023/05/19 12:01:33;;;;;;;2.45;2.05;;;20.20;71.40;;;;;;5055193;28;20044;-78
2023/05/19 12:03:59;;;;;;;2.20;2.00;;;20.20;71.30;;;;;;5020125;28;20311;-77
2023/05/19 12:06:25;;;;;;;2.40;2.20;;;20.20;71.40;;;;;;5034334;28;20045;-77
2023/05/19 12:08:51;;;;;;;2.22;1.75;;;20.20;70.90;;;;;;5053484;28;20457;-78
2023/05/19 12:11:17;;;;;;;3.15;2.30;;;20.20;71.90;;;;;;5034812;28;20059;-76
2023/05/19 12:13:43;;;;;;;1.80;1.70;;;20.20;71.20;;;;;;5052020;28;20055;-77
2023/05/19 12:16:09;;;;;;;2.65;1.90;;;20.20;71.80;;;;;;5052104;28;20040;-77
2023/05/19 12:18:39;;;;;;;1.95;1.85;;;20.20;71.60;;;;;;5035445;28;20644;-77
2023/05/19 12:21:04;;;;;;;2.00;1.85;;;20.20;71.50;;;;;;5047875;28;20041;-78
2023/05/19 12:23:31;;;;;;;2.28;2.05;;;20.20;71.30;;;;;;5048203;28;20052;-78
2023/05/19 12:26:00;;;;;;;1.90;1.70;;;20.20;71.40;;;;;;5020509;28;20041;-79
2023/05/19 12:28:28;;;;;;;2.67;2.10;;;20.20;71.40;;;;;;5029463;28;20044;-79
2023/05/19 12:30:54;;;;;;;2.30;2.20;;;20.20;71.50;;;;;;5010537;28;20048;-79
2023/05/19 12:33:20;;;;;;;1.98;1.88;;;20.30;71.40;;;;;;5014364;28;20045;-79
2023/05/19 12:35:48;;;;;;;2.53;1.88;;;20.20;71.40;;;;;;5036091;28;20040;-78
2023/05/19 12:38:14;;;;;;;3.97;1.85;;;20.30;71.70;;;;;;5040753;28;20048;-80
2023/05/19 12:40:40;;;;;;;2.42;1.98;;;20.30;71.90;;;;;;5030957;28;20067;-77
2023/05/19 12:43:06;;;;;;;2.67;1.80;;;20.30;72.00;;;;;;5051398;28;20083;-77
2023/05/19 12:45:35;;;;;;;2.78;1.88;;;20.40;71.90;;;;;;5054862;28;20433;-77